Elkton, Virginia
Current Conditions -  °F | °C
As of 12:35 AM on Sunday 26 Oct 2014 (Local Time) from K8W2 Reporting Station
Scattered Clouds Scattered Clouds  
Wind Chill: 54°   Ceiling: Unl
Heat Index: 54°   Visibility: 10mi
Dew Point: 46°   Wind: 0mph
Humidity: 76%   Direction: NA
Pressure: 29.74"   Gusts: NA
Location:  38.41°N, 78.62°W
Report Text: K8W2 260435Z AUTO 00000KT 10SM SCT060 12/08 A2974 RMK AO1 T01200078
Loading
Personal Weather Stations






























Interactive Weather Map
Tropical Storm Tracking
New forecast layout! Learn more

10-Day Weather Forecast

Advertisements
Track Severe Weather on mobile